createdAt,value
2017-11-26T00:01:33.427Z,7.90
2017-11-26T00:04:00.919Z,7.23
2017-11-26T00:06:28.403Z,7.90
2017-11-26T00:09:01.902Z,8.10
2017-11-26T00:11:29.359Z,7.20
2017-11-26T00:13:56.823Z,7.10
2017-11-26T00:16:24.308Z,7.47
2017-11-26T00:18:51.765Z,7.70
2017-11-26T00:21:19.240Z,7.73
2017-11-26T00:23:47.502Z,7.67
2017-11-26T00:26:14.972Z,7.10
2017-11-26T00:28:43.190Z,6.47
2017-11-26T00:31:10.666Z,7.43
2017-11-26T00:33:38.298Z,7.10
2017-11-26T00:36:05.823Z,5.90
2017-11-26T00:38:34.081Z,6.30
2017-11-26T00:41:01.559Z,6.30
2017-11-26T00:43:29.919Z,6.57
2017-11-26T00:45:57.526Z,6.03
2017-11-26T00:48:25.142Z,6.43
2017-11-26T00:50:52.608Z,5.67
2017-11-26T00:53:20.837Z,5.60
2017-11-26T00:55:48.379Z,5.50
2017-11-26T00:58:15.857Z,5.90
2017-11-26T01:00:43.322Z,6.40
2017-11-26T01:03:10.927Z,6.10
2017-11-26T01:05:39.152Z,5.90
2017-11-26T01:08:06.626Z,6.60
2017-11-26T01:10:34.166Z,6.40
2017-11-26T01:13:01.630Z,5.90
2017-11-26T01:15:29.142Z,6.17
2017-11-26T01:17:56.662Z,5.83
2017-11-26T01:20:24.194Z,6.43
2017-11-26T01:22:51.654Z,6.53
2017-11-26T01:25:19.136Z,5.40
2017-11-26T01:27:46.597Z,6.80
2017-11-26T01:30:14.148Z,6.37
2017-11-26T01:32:41.606Z,5.67
2017-11-26T01:35:09.099Z,7.33
2017-11-26T01:37:37.309Z,6.73
2017-11-26T01:40:04.792Z,6.20
2017-11-26T01:42:32.249Z,5.73
2017-11-26T01:44:59.713Z,5.50
2017-11-26T01:47:27.266Z,6.70
2017-11-26T01:49:54.884Z,6.30
2017-11-26T01:52:22.392Z,7.40
2017-11-26T01:54:50.708Z,6.47
2017-11-26T01:57:18.179Z,6.73
2017-11-26T01:59:45.626Z,6.00
2017-11-26T02:02:13.098Z,6.10
2017-11-26T02:04:40.566Z,6.83
2017-11-26T02:07:08.141Z,6.13
2017-11-26T02:09:35.615Z,7.03
2017-11-26T02:12:03.910Z,6.17
2017-11-26T02:14:31.365Z,7.40
2017-11-26T02:16:58.852Z,5.90
2017-11-26T02:19:26.307Z,6.50
2017-11-26T02:21:53.807Z,6.70
2017-11-26T02:24:21.285Z,5.80
2017-11-26T02:26:49.545Z,6.23
2017-11-26T02:29:17.799Z,6.27
2017-11-26T02:31:57.239Z,5.73
2017-11-26T02:34:36.557Z,6.10
2017-11-26T02:37:04.014Z,5.93
2017-11-26T02:39:31.682Z,5.63
2017-11-26T02:41:59.150Z,5.57
2017-11-26T02:44:26.623Z,6.10
2017-11-26T02:46:54.081Z,6.03
2017-11-26T02:49:21.553Z,6.60
2017-11-26T02:51:49.782Z,6.40
2017-11-26T02:54:17.328Z,6.07
2017-11-26T02:56:44.799Z,6.00
2017-11-26T02:59:12.295Z,5.60
2017-11-26T03:01:40.519Z,4.97
2017-11-26T03:04:07.982Z,5.57
2017-11-26T03:06:35.443Z,5.67
2017-11-26T03:09:02.911Z,5.87
2017-11-26T03:11:30.418Z,5.73
2017-11-26T03:13:57.891Z,4.93
2017-11-26T03:16:25.359Z,4.80
2017-11-26T03:18:56.356Z,5.07
2017-11-26T03:21:24.604Z,5.50
2017-11-26T03:23:52.054Z,4.73
2017-11-26T03:26:19.586Z,5.50
2017-11-26T03:28:47.047Z,5.23
2017-11-26T03:31:14.523Z,4.87
2017-11-26T03:33:41.984Z,4.67
2017-11-26T03:36:09.457Z,5.20
2017-11-26T03:38:36.921Z,4.70
2017-11-26T03:41:05.174Z,5.40
2017-11-26T03:43:32.647Z,4.70
2017-11-26T03:46:00.116Z,4.60
2017-11-26T03:48:28.377Z,4.67
2017-11-26T03:50:55.842Z,3.90
2017-11-26T03:53:24.078Z,4.87
2017-11-26T03:55:51.566Z,4.40
2017-11-26T03:58:19.036Z,4.33
2017-11-26T04:00:47.276Z,3.40
2017-11-26T04:03:14.734Z,4.63
2017-11-26T04:05:42.205Z,4.30
2017-11-26T04:08:09.669Z,4.13
2017-11-26T04:10:37.224Z,4.40
2017-11-26T04:13:04.682Z,4.20
2017-11-26T04:15:32.159Z,3.87
2017-11-26T04:18:00.441Z,4.43
2017-11-26T04:20:28.666Z,4.20
2017-11-26T04:22:56.123Z,4.00
2017-11-26T04:25:23.606Z,4.53
2017-11-26T04:27:51.064Z,4.40
2017-11-26T04:30:18.533Z,4.83
2017-11-26T04:32:46.854Z,4.90
2017-11-26T04:35:14.309Z,4.00
2017-11-26T04:37:41.762Z,4.47
2017-11-26T04:40:09.228Z,4.70
2017-11-26T04:42:36.826Z,4.50
2017-11-26T04:45:04.299Z,5.77
2017-11-26T04:47:32.544Z,4.83
2017-11-26T04:50:00.028Z,5.50
2017-11-26T04:52:28.253Z,5.20
2017-11-26T04:54:55.734Z,5.20
2017-11-26T04:57:23.210Z,4.63
2017-11-26T04:59:52.031Z,5.20
2017-11-26T05:02:19.497Z,4.40
2017-11-26T05:04:46.980Z,6.23
2017-11-26T05:07:14.443Z,4.90
2017-11-26T05:09:41.924Z,4.60
2017-11-26T05:12:09.393Z,5.97
2017-11-26T05:14:37.648Z,5.17
2017-11-26T05:17:05.161Z,4.60
2017-11-26T05:19:32.647Z,4.63
2017-11-26T05:22:00.110Z,5.53
2017-11-26T05:24:27.581Z,4.63
2017-11-26T05:26:55.053Z,4.77
2017-11-26T05:29:23.283Z,4.73
2017-11-26T05:31:50.757Z,6.90
2017-11-26T05:34:18.236Z,5.07
2017-11-26T05:36:46.461Z,4.10
2017-11-26T05:39:13.930Z,5.00
2017-11-26T05:41:41.498Z,4.60
2017-11-26T05:44:09.889Z,4.70
2017-11-26T05:46:37.364Z,4.73
2017-11-26T05:49:05.582Z,4.90
2017-11-26T05:51:33.058Z,4.53
2017-11-26T05:54:00.519Z,5.80
2017-11-26T05:56:27.999Z,5.00
2017-11-26T05:58:55.611Z,5.30
2017-11-26T06:01:23.077Z,5.37
2017-11-26T06:03:50.641Z,4.73
2017-11-26T06:06:18.107Z,4.20
2017-11-26T06:08:45.589Z,4.23
2017-11-26T06:11:13.155Z,5.20
2017-11-26T06:13:41.385Z,4.40
2017-11-26T06:16:08.901Z,4.10
2017-11-26T06:18:37.283Z,4.50
2017-11-26T06:21:04.733Z,4.47
2017-11-26T06:23:32.985Z,3.80
2017-11-26T06:26:00.443Z,4.60
2017-11-26T06:28:28.080Z,4.37
2017-11-26T06:30:55.542Z,5.43
2017-11-26T06:33:23.010Z,4.00
2017-11-26T06:35:50.484Z,4.13
2017-11-26T06:38:18.730Z,3.83
2017-11-26T06:40:46.306Z,4.20
2017-11-26T06:43:13.836Z,4.70
2017-11-26T06:45:41.306Z,4.70
2017-11-26T06:48:08.770Z,4.80
2017-11-26T06:50:36.242Z,3.97
2017-11-26T06:53:04.517Z,4.40
2017-11-26T06:55:32.822Z,4.20
2017-11-26T06:58:00.322Z,3.87
2017-11-26T07:00:27.881Z,4.00
2017-11-26T07:02:55.353Z,3.80
2017-11-26T07:05:22.976Z,3.73
2017-11-26T07:07:50.437Z,3.83
2017-11-26T07:10:17.914Z,4.67
2017-11-26T07:12:45.370Z,4.10
2017-11-26T07:15:12.914Z,4.00
2017-11-26T07:17:40.381Z,4.50
2017-11-26T07:20:07.860Z,4.30
2017-11-26T07:22:35.331Z,4.60
2017-11-26T07:25:02.792Z,4.10
2017-11-26T07:27:31.046Z,4.23
2017-11-26T07:29:58.526Z,4.23
2017-11-26T07:32:26.768Z,4.23
2017-11-26T07:34:54.217Z,3.83
2017-11-26T07:37:21.688Z,4.80
2017-11-26T07:39:50.033Z,3.63
2017-11-26T07:42:17.706Z,4.30
2017-11-26T07:44:45.808Z,4.23
2017-11-26T07:47:14.081Z,4.10
2017-11-26T07:49:42.425Z,4.47
2017-11-26T07:52:09.907Z,4.17
2017-11-26T07:54:37.562Z,4.10
2017-11-26T07:57:05.031Z,4.30
2017-11-26T07:59:32.508Z,3.87
2017-11-26T08:02:00.749Z,4.03
2017-11-26T08:04:28.242Z,4.27
2017-11-26T08:06:56.464Z,4.30
2017-11-26T08:09:23.942Z,4.03
2017-11-26T08:11:52.057Z,3.87
2017-11-26T08:14:20.286Z,3.80
2017-11-26T08:16:47.752Z,4.40
2017-11-26T08:19:15.221Z,4.00
2017-11-26T08:21:42.704Z,3.87
2017-11-26T08:24:10.938Z,3.70
2017-11-26T08:26:38.414Z,4.43
2017-11-26T08:29:05.966Z,4.37
2017-11-26T08:31:33.448Z,3.73
2017-11-26T08:34:01.683Z,3.80
2017-11-26T08:36:29.158Z,3.60
2017-11-26T08:38:56.626Z,3.77
2017-11-26T08:41:24.870Z,4.30
2017-11-26T08:43:52.362Z,3.47
2017-11-26T08:46:20.603Z,4.40
2017-11-26T08:48:48.080Z,3.70
2017-11-26T08:51:15.540Z,3.77
2017-11-26T08:53:43.003Z,3.40
2017-11-26T08:56:11.234Z,4.80
2017-11-26T08:58:38.789Z,3.27
2017-11-26T09:01:06.275Z,3.93
2017-11-26T09:03:33.748Z,4.20
2017-11-26T09:06:01.202Z,4.23
2017-11-26T09:08:45.316Z,4.03
2017-11-26T09:11:12.810Z,4.17
2017-11-26T09:13:41.051Z,3.40
2017-11-26T09:16:08.512Z,4.30
2017-11-26T09:18:36.074Z,5.00
2017-11-26T09:21:03.649Z,3.80
2017-11-26T09:23:31.150Z,3.80
2017-11-26T09:25:58.610Z,4.50
2017-11-26T09:28:26.076Z,5.00
2017-11-26T09:30:53.551Z,4.10
2017-11-26T09:33:21.727Z,3.60
2017-11-26T09:35:49.187Z,4.20
2017-11-26T09:38:16.655Z,3.70
2017-11-26T09:40:44.116Z,3.73
2017-11-26T09:43:11.589Z,4.00
2017-11-26T09:45:39.831Z,4.93
2017-11-26T09:48:07.405Z,4.00
2017-11-26T09:50:34.888Z,4.13
2017-11-26T09:53:03.132Z,4.40
2017-11-26T09:55:30.646Z,3.60
2017-11-26T09:57:58.115Z,4.13
2017-11-26T10:00:25.588Z,4.47
2017-11-26T10:02:53.052Z,3.77
2017-11-26T10:05:20.515Z,4.07
2017-11-26T10:07:47.991Z,4.27
2017-11-26T10:10:16.253Z,3.47
2017-11-26T10:12:43.812Z,4.43
2017-11-26T10:15:11.277Z,3.90
2017-11-26T10:17:38.759Z,3.47
2017-11-26T10:20:06.991Z,4.10
2017-11-26T10:22:34.470Z,3.63
2017-11-26T10:25:01.953Z,3.93
2017-11-26T10:27:29.563Z,5.13
2017-11-26T10:29:57.164Z,3.77
2017-11-26T10:32:25.405Z,3.87
2017-11-26T10:34:52.870Z,3.87
2017-11-26T10:37:20.961Z,3.67
2017-11-26T10:39:48.470Z,5.03
2017-11-26T10:42:15.965Z,3.67
2017-11-26T10:44:43.466Z,3.50
2017-11-26T10:47:10.973Z,4.93
2017-11-26T10:49:39.236Z,3.97
2017-11-26T10:52:06.715Z,4.43
2017-11-26T10:54:34.181Z,4.17
2017-11-26T10:57:02.449Z,4.13
2017-11-26T10:59:30.094Z,4.30
2017-11-26T11:01:57.556Z,3.80
2017-11-26T11:04:25.246Z,3.43
2017-11-26T11:06:53.537Z,4.23
2017-11-26T11:09:21.033Z,4.10
2017-11-26T11:11:48.507Z,4.17
2017-11-26T11:14:16.007Z,4.57
2017-11-26T11:16:44.079Z,3.57
2017-11-26T11:19:11.580Z,5.97
2017-11-26T11:21:39.080Z,3.87
2017-11-26T11:24:07.305Z,6.37
2017-11-26T11:26:34.786Z,3.00
2017-11-26T11:29:02.281Z,3.53
2017-11-26T11:31:30.624Z,4.83
2017-11-26T11:33:58.098Z,3.73
2017-11-26T11:36:26.353Z,4.23
2017-11-26T11:38:53.952Z,3.83
2017-11-26T11:41:21.428Z,4.27
2017-11-26T11:43:48.958Z,5.40
2017-11-26T11:46:17.264Z,4.30
2017-11-26T11:48:44.730Z,3.93
2017-11-26T11:51:12.218Z,4.73
2017-11-26T11:53:39.704Z,4.40
2017-11-26T11:56:08.946Z,4.70
2017-11-26T11:58:36.448Z,4.50
2017-11-26T12:01:04.694Z,4.90
2017-11-26T12:03:32.232Z,4.23
2017-11-26T12:05:59.718Z,3.57
2017-11-26T12:08:27.271Z,4.10
2017-11-26T12:10:54.778Z,4.63
2017-11-26T12:13:22.227Z,3.43
2017-11-26T12:15:50.166Z,4.47
2017-11-26T12:18:17.630Z,4.37
2017-11-26T12:20:45.199Z,3.87
2017-11-26T12:23:12.671Z,4.33
2017-11-26T12:25:40.129Z,4.20
2017-11-26T12:28:07.589Z,4.40
2017-11-26T12:30:35.064Z,4.77
2017-11-26T12:33:02.540Z,4.83
2017-11-26T12:35:30.001Z,4.03
2017-11-26T12:37:57.470Z,5.20
2017-11-26T12:40:25.070Z,3.90
2017-11-26T12:42:53.392Z,4.10
2017-11-26T12:45:20.961Z,4.43
2017-11-26T12:47:48.418Z,3.53
2017-11-26T12:50:15.897Z,4.50
2017-11-26T12:52:43.363Z,3.87
2017-11-26T12:55:11.598Z,4.67
2017-11-26T12:57:39.075Z,4.60
2017-11-26T13:00:06.602Z,5.00
2017-11-26T13:02:34.060Z,4.73
2017-11-26T13:05:02.650Z,4.87
2017-11-26T13:07:30.142Z,4.03
2017-11-26T13:09:57.605Z,4.67
2017-11-26T13:12:25.830Z,4.37
2017-11-26T13:14:53.312Z,4.70
2017-11-26T13:17:20.769Z,3.87
2017-11-26T13:19:48.241Z,3.93
2017-11-26T13:22:16.570Z,4.30
2017-11-26T13:24:44.028Z,4.53
2017-11-26T13:27:11.502Z,4.20
2017-11-26T13:29:38.978Z,3.90
2017-11-26T13:32:06.451Z,3.73
2017-11-26T13:34:34.138Z,4.43
2017-11-26T13:37:01.616Z,4.70
2017-11-26T13:39:29.088Z,4.93
2017-11-26T13:41:56.582Z,4.13
2017-11-26T13:44:24.853Z,4.07
2017-11-26T13:46:52.383Z,3.97
2017-11-26T13:49:19.857Z,4.10
2017-11-26T13:51:48.159Z,4.90
2017-11-26T13:54:16.370Z,3.63
2017-11-26T13:56:43.854Z,4.27
2017-11-26T13:59:11.302Z,4.07
2017-11-26T14:01:38.769Z,4.80
2017-11-26T14:04:06.232Z,4.30
2017-11-26T14:06:33.703Z,3.60
2017-11-26T14:09:01.161Z,4.50
2017-11-26T14:11:28.626Z,4.63
2017-11-26T14:13:56.862Z,4.57
2017-11-26T14:16:24.438Z,5.13
2017-11-26T14:18:51.983Z,4.70
2017-11-26T14:21:19.554Z,5.87
2017-11-26T14:23:47.171Z,3.67
2017-11-26T14:26:15.402Z,4.50
2017-11-26T14:28:42.869Z,4.57
2017-11-26T14:31:11.125Z,3.93
2017-11-26T14:33:38.602Z,4.40
2017-11-26T14:36:07.118Z,4.03
2017-11-26T14:38:34.603Z,4.67
2017-11-26T14:41:02.077Z,4.40
2017-11-26T14:43:29.547Z,4.77
2017-11-26T14:45:57.014Z,3.60
2017-11-26T14:48:25.286Z,4.37
2017-11-26T14:50:53.614Z,5.13
2017-11-26T14:53:21.083Z,4.40
2017-11-26T14:55:48.607Z,5.60
2017-11-26T14:58:16.085Z,3.57
2017-11-26T15:00:43.936Z,4.70
2017-11-26T15:03:11.446Z,4.53
2017-11-26T15:05:38.950Z,4.53
2017-11-26T15:08:06.431Z,4.63
2017-11-26T15:10:33.893Z,4.37
2017-11-26T15:13:01.522Z,4.70
2017-11-26T15:15:29.010Z,4.13
2017-11-26T15:17:56.548Z,4.23
2017-11-26T15:20:24.146Z,4.87
2017-11-26T15:22:51.817Z,4.47
2017-11-26T15:25:19.316Z,5.73
2017-11-26T15:27:46.864Z,4.60
2017-11-26T15:30:14.495Z,3.87
2017-11-26T15:32:45.945Z,4.10
2017-11-26T15:35:13.478Z,4.60
2017-11-26T15:37:40.934Z,4.63
2017-11-26T15:40:08.410Z,5.10
2017-11-26T15:42:35.880Z,3.93
2017-11-26T15:45:03.373Z,4.30
2017-11-26T15:47:30.949Z,4.20
2017-11-26T15:49:58.644Z,4.73
2017-11-26T15:52:26.185Z,3.57
2017-11-26T15:54:53.640Z,4.73
2017-11-26T15:57:21.459Z,4.87
2017-11-26T15:59:49.088Z,4.33
2017-11-26T16:02:17.223Z,5.10
2017-11-26T16:04:44.727Z,4.87
2017-11-26T16:07:14.053Z,5.00
2017-11-26T16:09:41.590Z,4.33
2017-11-26T16:12:10.449Z,5.07
2017-11-26T16:14:38.099Z,4.60
2017-11-26T16:17:05.950Z,5.30
2017-11-26T16:19:33.514Z,5.30
2017-11-26T16:22:00.972Z,4.50
2017-11-26T16:24:28.470Z,5.33
2017-11-26T16:26:55.942Z,4.97
2017-11-26T16:29:24.224Z,5.57
2017-11-26T16:31:52.462Z,4.97
2017-11-26T16:34:19.965Z,5.10
2017-11-26T16:36:47.455Z,4.93
2017-11-26T16:39:14.946Z,4.77
2017-11-26T16:41:42.441Z,5.00
2017-11-26T16:44:09.918Z,5.73
2017-11-26T16:46:37.398Z,5.37
2017-11-26T16:49:04.863Z,6.20
2017-11-26T16:51:32.367Z,5.63
2017-11-26T16:54:00.747Z,5.40
2017-11-26T16:56:28.987Z,6.30
2017-11-26T16:58:56.472Z,5.73
2017-11-26T17:01:23.964Z,5.77
2017-11-26T17:03:51.431Z,5.17
2017-11-26T17:06:18.904Z,6.60
2017-11-26T17:08:47.158Z,5.80
2017-11-26T17:11:14.722Z,5.83
2017-11-26T17:13:42.232Z,5.70
2017-11-26T17:16:10.481Z,6.20
2017-11-26T17:18:37.962Z,5.33
2017-11-26T17:21:06.342Z,6.13
2017-11-26T17:23:34.613Z,7.60
2017-11-26T17:26:02.838Z,5.80
2017-11-26T17:28:30.397Z,6.20
2017-11-26T17:30:57.979Z,6.50
2017-11-26T17:33:25.877Z,5.80
2017-11-26T17:35:54.130Z,6.43
2017-11-26T17:38:21.675Z,6.30
2017-11-26T17:40:49.146Z,6.13
2017-11-26T17:43:16.758Z,5.47
2017-11-26T17:45:44.230Z,7.00
2017-11-26T17:48:11.699Z,6.43
2017-11-26T17:50:39.213Z,6.70
2017-11-26T17:53:06.768Z,8.10
2017-11-26T17:55:34.306Z,6.37
2017-11-26T17:58:01.879Z,7.47
2017-11-26T18:00:30.127Z,7.13
2017-11-26T18:02:57.611Z,7.10
2017-11-26T18:05:25.078Z,7.00
2017-11-26T18:07:52.565Z,6.97
2017-11-26T18:10:20.307Z,7.17
2017-11-26T18:12:47.816Z,7.00
2017-11-26T18:15:15.312Z,6.70
2017-11-26T18:17:42.811Z,6.57
2017-11-26T18:20:10.332Z,5.90
2017-11-26T18:22:37.856Z,6.30
2017-11-26T18:25:05.387Z,6.20
2017-11-26T18:27:32.960Z,6.93
2017-11-26T18:30:00.543Z,6.97
2017-11-26T18:32:28.947Z,6.40
2017-11-26T18:34:56.640Z,6.30
2017-11-26T18:37:24.127Z,6.17
2017-11-26T18:39:51.696Z,6.50
2017-11-26T18:42:19.967Z,6.17
2017-11-26T18:44:47.446Z,7.23
2017-11-26T18:47:15.877Z,7.07
2017-11-26T18:49:43.764Z,6.57
2017-11-26T18:52:11.237Z,6.67
2017-11-26T18:54:38.820Z,6.60
2017-11-26T18:57:06.448Z,6.63
2017-11-26T18:59:34.798Z,6.10
2017-11-26T19:02:02.294Z,5.73
2017-11-26T19:04:30.718Z,6.53
2017-11-26T19:06:58.263Z,6.60
2017-11-26T19:09:25.798Z,6.67
2017-11-26T19:11:54.054Z,6.57
2017-11-26T19:14:21.949Z,6.00
2017-11-26T19:16:49.610Z,6.03
2017-11-26T19:19:17.896Z,6.00
2017-11-26T19:21:45.520Z,6.60
2017-11-26T19:24:13.385Z,6.00
2017-11-26T19:26:40.870Z,6.03
2017-11-26T19:29:09.002Z,6.17
2017-11-26T19:31:37.314Z,6.00
2017-11-26T19:34:05.809Z,6.67
2017-11-26T19:36:33.299Z,6.50
2017-11-26T19:39:00.824Z,5.90
2017-11-26T19:41:29.481Z,6.90
2017-11-26T19:43:56.991Z,6.40
2017-11-26T19:46:24.548Z,6.70
2017-11-26T19:48:52.022Z,6.80
2017-11-26T20:04:20.311Z,6.77
2017-11-26T20:06:48.735Z,7.37
2017-11-26T20:09:16.468Z,6.70
2017-11-26T20:11:44.723Z,7.03
2017-11-26T20:14:12.216Z,7.13
2017-11-26T20:16:39.703Z,7.60
2017-11-26T20:19:07.205Z,6.33
2017-11-26T20:21:35.531Z,6.70
2017-11-26T20:24:03.035Z,5.77
2017-11-26T20:26:31.410Z,6.67
2017-11-26T20:28:59.693Z,7.20
2017-11-26T20:31:27.962Z,5.80
2017-11-26T20:33:55.441Z,6.67
2017-11-26T20:36:23.706Z,6.77
2017-11-26T20:38:51.940Z,7.17
2017-11-26T20:41:19.450Z,6.60
2017-11-26T20:43:46.970Z,6.07
2017-11-26T20:46:16.070Z,6.47
2017-11-26T20:48:43.605Z,5.90
2017-11-26T20:51:11.075Z,6.20
2017-11-26T20:53:38.550Z,5.63
2017-11-26T20:56:06.805Z,6.70
2017-11-26T20:58:34.281Z,5.97
2017-11-26T21:01:01.750Z,6.70
2017-11-26T21:03:30.219Z,4.90
2017-11-26T21:05:57.716Z,5.73
2017-11-26T21:08:25.185Z,6.43
2017-11-26T21:10:52.712Z,6.70
2017-11-26T21:13:20.938Z,5.90
2017-11-26T21:15:48.417Z,5.00
2017-11-26T21:18:15.908Z,5.50
2017-11-26T21:20:43.434Z,5.80
2017-11-26T21:23:10.952Z,7.17
2017-11-26T21:25:38.436Z,5.63
2017-11-26T21:28:05.905Z,5.87
2017-11-26T21:30:33.422Z,5.60
2017-11-26T21:33:00.931Z,6.00
2017-11-26T21:35:28.420Z,6.10
2017-11-26T21:38:00.098Z,6.40
2017-11-26T21:40:27.576Z,6.43
2017-11-26T21:42:55.061Z,6.40
2017-11-26T21:45:23.310Z,5.30
2017-11-26T21:47:52.218Z,6.50
2017-11-26T21:50:20.466Z,5.20
2017-11-26T21:52:47.959Z,5.77
2017-11-26T21:55:15.494Z,6.60
2017-11-26T21:57:42.966Z,4.80
2017-11-26T22:00:10.422Z,5.10
2017-11-26T22:02:37.924Z,4.77
2017-11-26T22:05:05.494Z,4.60
2017-11-26T22:07:32.977Z,3.70
2017-11-26T22:10:00.487Z,4.13
2017-11-26T22:12:27.988Z,4.40
2017-11-26T22:14:55.497Z,4.57
2017-11-26T22:17:22.991Z,3.90
2017-11-26T22:19:50.472Z,4.20
2017-11-26T22:22:17.952Z,3.90
2017-11-26T22:24:46.247Z,3.80
2017-11-26T22:27:13.716Z,3.77
2017-11-26T22:29:41.203Z,3.70
2017-11-26T22:32:08.714Z,4.10
2017-11-26T22:34:37.261Z,4.73
2017-11-26T22:37:04.746Z,4.40
2017-11-26T22:39:33.039Z,4.10
2017-11-26T22:42:00.628Z,4.50
2017-11-26T22:44:28.100Z,4.70
2017-11-26T22:46:57.248Z,3.90
2017-11-26T22:49:25.834Z,4.33
2017-11-26T22:51:53.324Z,3.97
2017-11-26T22:54:20.807Z,4.27
2017-11-26T22:56:48.303Z,4.03
2017-11-26T22:59:15.808Z,4.40
2017-11-26T23:01:43.310Z,5.10
2017-11-26T23:04:11.568Z,4.83
2017-11-26T23:06:39.058Z,4.77
2017-11-26T23:09:06.510Z,4.83
2017-11-26T23:11:33.983Z,5.33
2017-11-26T23:14:01.661Z,4.97
2017-11-26T23:16:29.112Z,5.50
2017-11-26T23:18:56.614Z,4.63
2017-11-26T23:21:24.083Z,4.80
2017-11-26T23:23:52.330Z,5.23
2017-11-26T23:26:19.856Z,5.63
2017-11-26T23:28:48.037Z,4.10
2017-11-26T23:31:15.500Z,4.60
2017-11-26T23:33:42.988Z,4.80
2017-11-26T23:36:10.468Z,5.20
2017-11-26T23:38:38.701Z,5.13
2017-11-26T23:41:06.389Z,4.30
2017-11-26T23:43:34.635Z,4.00
2017-11-26T23:46:02.268Z,4.93
2017-11-26T23:48:29.726Z,4.50
2017-11-26T23:50:57.197Z,5.07
2017-11-26T23:53:24.675Z,5.27
2017-11-26T23:55:52.133Z,3.60
2017-11-26T23:58:19.710Z,3.70
